Time;durP1;ratioP1;P1;durP2;ratioP2;P2;SDS_P1;SDS_P2;PMS_P1;PMS_P2;Temp;Humidity;BMP_temperature;BMP_pressure;BME280_temperature;BME280_humidity;BME280_pressure;Samples;Min_cycle;Max_cycle;Signal;HPM_P1;HPM_P2
2022/09/04 00:02:01;;;;;;;7.30;3.80;;;19.10;71.80;;;;;;5032027;28;20489;-74
2022/09/04 00:04:36;;;;;;;5.90;3.53;;;19.00;71.80;;;;;;5031634;28;20490;-74
2022/09/04 00:07:16;;;;;;;5.43;3.43;;;19.00;71.90;;;;;;5036454;28;20460;-73
2022/09/04 00:09:55;;;;;;;6.67;4.17;;;19.00;72.00;;;;;;5037988;28;20488;-73
2022/09/04 00:12:30;;;;;;;7.07;3.80;;;18.90;71.90;;;;;;5033503;28;20457;-73
2022/09/04 00:15:02;;;;;;;8.10;3.70;;;18.90;72.00;;;;;;5038668;28;20461;-74
2022/09/04 00:17:38;;;;;;;6.67;3.50;;;18.90;72.00;;;;;;5018168;28;20471;-74
2022/09/04 00:20:11;;;;;;;5.50;3.20;;;18.90;72.00;;;;;;5037195;28;20578;-74
2022/09/04 00:22:51;;;;;;;9.40;3.30;;;18.90;72.00;;;;;;5042195;28;20475;-74
2022/09/04 00:25:25;;;;;;;5.90;3.43;;;18.80;71.90;;;;;;5034246;28;20459;-74
2022/09/04 00:28:04;;;;;;;5.70;3.23;;;18.80;71.90;;;;;;5036889;28;20896;-74
2022/09/04 00:30:36;;;;;;;7.80;4.10;;;18.80;71.80;;;;;;5038144;28;20475;-74
2022/09/04 00:33:12;;;;;;;10.03;3.93;;;18.70;71.80;;;;;;5020270;28;20468;-74
2022/09/04 00:35:49;;;;;;;6.83;4.10;;;18.70;71.80;;;;;;5014481;28;21202;-73
2022/09/04 00:38:31;;;;;;;5.73;3.70;;;18.60;71.90;;;;;;5037802;28;20469;-74
2022/09/04 00:41:09;;;;;;;6.73;3.83;;;18.60;71.80;;;;;;5033647;28;20495;-74
2022/09/04 00:44:12;;;;;;;5.33;3.23;;;18.60;71.90;;;;;;5033538;28;20555;-74
2022/09/04 00:47:05;;;;;;;5.90;3.47;;;18.50;71.80;;;;;;5034991;28;20462;-74
2022/09/04 00:50:10;;;;;;;7.53;4.13;;;18.40;71.80;;;;;;5038162;28;20473;-75
2022/09/04 00:53:08;;;;;;;7.57;4.47;;;18.40;71.70;;;;;;5001871;28;20492;-75
2022/09/04 00:55:52;;;;;;;5.00;2.90;;;18.30;71.90;;;;;;5032627;28;20453;-75
2022/09/04 00:58:50;;;;;;;6.00;3.57;;;18.20;72.10;;;;;;5037034;28;21066;-74
2022/09/04 01:01:23;;;;;;;8.17;3.20;;;18.20;72.10;;;;;;5039629;28;20838;-74
2022/09/04 01:04:12;;;;;;;7.70;3.53;;;18.20;72.20;;;;;;5017025;28;20467;-74
2022/09/04 01:06:46;;;;;;;7.67;4.70;;;18.20;72.30;;;;;;5034695;28;20984;-74
2022/09/04 01:09:32;;;;;;;5.57;3.30;;;18.20;72.30;;;;;;5033099;28;20542;-75
2022/09/04 01:12:08;;;;;;;6.30;3.60;;;18.20;72.30;;;;;;5036201;28;21020;-75
2022/09/04 01:14:41;;;;;;;6.23;3.00;;;18.10;72.30;;;;;;5016002;28;20487;-74
2022/09/04 01:17:22;;;;;;;5.60;3.67;;;18.10;72.30;;;;;;5030559;28;20992;-74
2022/09/04 01:19:56;;;;;;;6.90;3.60;;;18.10;72.50;;;;;;5037184;28;20495;-74
2022/09/04 01:22:49;;;;;;;6.00;3.87;;;18.10;72.50;;;;;;5030260;28;20478;-74
2022/09/04 01:25:34;;;;;;;7.70;3.43;;;18.10;72.40;;;;;;5033218;28;20475;-74
2022/09/04 01:28:09;;;;;;;10.80;4.23;;;18.10;72.50;;;;;;5035702;28;20454;-74
2022/09/04 01:30:45;;;;;;;6.20;3.53;;;18.00;72.50;;;;;;5035816;28;20494;-75
2022/09/04 01:33:22;;;;;;;8.57;3.03;;;18.00;72.40;;;;;;5019289;28;20466;-74
2022/09/04 01:35:57;;;;;;;8.03;3.20;;;18.00;72.50;;;;;;5035307;28;20485;-74
2022/09/04 01:38:33;;;;;;;7.47;3.37;;;18.00;72.50;;;;;;5035871;28;20448;-74
2022/09/04 01:41:07;;;;;;;5.03;2.80;;;18.00;72.50;;;;;;5038831;28;20454;-74
2022/09/04 01:43:36;;;;;;;7.80;4.73;;;18.00;72.60;;;;;;5035826;28;20490;-74
2022/09/04 01:46:27;;;;;;;8.07;4.37;;;18.00;72.60;;;;;;5039692;28;20549;-74
2022/09/04 01:49:03;;;;;;;6.93;3.63;;;18.00;72.60;;;;;;5036100;28;21003;-73
2022/09/04 01:51:40;;;;;;;13.03;4.03;;;18.00;72.60;;;;;;5018583;28;20477;-74
2022/09/04 01:54:19;;;;;;;5.50;3.23;;;18.00;72.50;;;;;;5032037;28;21232;-74
2022/09/04 01:56:58;;;;;;;6.30;3.63;;;18.00;72.50;;;;;;5037934;28;20964;-74
2022/09/04 01:59:34;;;;;;;7.03;3.40;;;17.90;72.50;;;;;;5030947;28;20484;-74
2022/09/04 02:02:12;;;;;;;6.00;3.30;;;17.90;72.50;;;;;;5031035;28;20469;-74
2022/09/04 02:04:48;;;;;;;5.30;3.10;;;17.90;72.50;;;;;;5031736;28;20567;-74
2022/09/04 02:07:27;;;;;;;6.47;3.50;;;17.90;72.50;;;;;;5021662;28;20470;-74
2022/09/04 02:10:06;;;;;;;5.97;3.73;;;17.80;72.40;;;;;;5036724;28;20481;-74
2022/09/04 02:12:45;;;;;;;8.13;4.10;;;17.80;72.40;;;;;;5032516;28;20474;-74
2022/09/04 02:15:29;;;;;;;6.60;3.60;;;17.80;72.30;;;;;;5032923;28;20470;-74
2022/09/04 02:18:10;;;;;;;6.73;3.50;;;17.70;72.20;;;;;;5018312;28;20486;-74
2022/09/04 02:20:44;;;;;;;7.40;4.37;;;17.70;72.20;;;;;;5034885;28;20573;-74
2022/09/04 02:23:18;;;;;;;6.63;3.60;;;17.60;72.30;;;;;;5035725;28;20474;-74
2022/09/04 02:25:53;;;;;;;7.00;3.73;;;17.60;72.40;;;;;;5043227;28;20464;-74
2022/09/04 02:28:29;;;;;;;5.40;3.23;;;17.50;72.40;;;;;;5033130;28;20448;-74
2022/09/04 02:31:09;;;;;;;6.23;3.77;;;17.50;72.40;;;;;;5041230;28;20461;-74
2022/09/04 02:33:45;;;;;;;6.30;3.90;;;17.40;72.30;;;;;;5036376;28;20444;-74
2022/09/04 02:36:21;;;;;;;6.60;3.80;;;17.40;72.30;;;;;;5018727;28;20455;-74
2022/09/04 02:38:58;;;;;;;7.00;3.60;;;17.30;72.50;;;;;;5039303;28;20479;-74
2022/09/04 02:41:37;;;;;;;5.60;3.43;;;17.30;72.60;;;;;;5036497;28;20505;-74
2022/09/04 02:44:21;;;;;;;8.13;3.73;;;17.20;72.70;;;;;;5035829;28;20483;-75
2022/09/04 02:46:59;;;;;;;5.73;3.40;;;17.20;72.80;;;;;;5042235;28;20473;-75
2022/09/04 02:49:37;;;;;;;7.33;3.40;;;17.20;72.90;;;;;;5038520;28;20490;-75
2022/09/04 02:52:17;;;;;;;6.67;3.70;;;17.20;73.00;;;;;;5035631;28;20455;-75
2022/09/04 02:54:57;;;;;;;7.10;4.00;;;17.30;73.00;;;;;;5014155;28;20455;-75
2022/09/04 02:57:38;;;;;;;6.27;3.90;;;17.30;73.10;;;;;;5038454;28;20462;-75
2022/09/04 03:00:13;;;;;;;6.47;3.60;;;17.30;73.10;;;;;;5036566;28;20518;-74
2022/09/04 03:02:51;;;;;;;7.97;3.70;;;17.30;73.10;;;;;;5040991;28;20510;-74
2022/09/04 03:05:22;;;;;;;7.50;3.90;;;17.30;73.20;;;;;;5037089;28;20473;-74
2022/09/04 03:07:58;;;;;;;7.50;4.50;;;17.30;73.30;;;;;;5044695;28;20444;-74
2022/09/04 03:10:31;;;;;;;6.93;4.10;;;17.30;73.30;;;;;;5038623;28;20557;-74
2022/09/04 03:13:05;;;;;;;6.27;3.63;;;17.30;73.40;;;;;;5037780;28;20466;-74
2022/09/04 03:15:40;;;;;;;6.10;3.53;;;17.30;73.40;;;;;;5037947;28;20967;-74
2022/09/04 03:18:17;;;;;;;7.63;4.00;;;17.30;73.50;;;;;;5033057;28;20494;-74
2022/09/04 03:20:53;;;;;;;8.07;3.93;;;17.30;73.60;;;;;;5041934;28;20506;-75
2022/09/04 03:23:28;;;;;;;5.70;3.50;;;17.30;73.60;;;;;;5032704;28;20903;-74
2022/09/04 03:26:21;;;;;;;7.83;4.20;;;17.30;73.60;;;;;;5041467;28;20470;-77
2022/09/04 03:29:03;;;;;;;7.77;4.43;;;17.30;73.70;;;;;;5027436;28;20512;-75
2022/09/04 03:31:38;;;;;;;9.17;5.90;;;17.30;73.80;;;;;;5034464;28;20968;-74
2022/09/04 03:34:18;;;;;;;11.30;6.77;;;17.30;73.80;;;;;;5037755;28;20451;-74
2022/09/04 03:37:06;;;;;;;9.17;5.73;;;17.30;73.80;;;;;;5038675;28;20527;-75
2022/09/04 03:39:42;;;;;;;6.67;4.30;;;17.30;73.90;;;;;;5036496;28;20486;-74
2022/09/04 03:42:18;;;;;;;8.63;4.87;;;17.30;73.90;;;;;;5034646;28;20964;-74
2022/09/04 03:44:58;;;;;;;7.33;4.20;;;17.30;73.90;;;;;;5015988;28;20472;-75
2022/09/04 03:47:37;;;;;;;7.40;4.10;;;17.30;73.90;;;;;;5024258;28;20547;-74
2022/09/04 03:50:17;;;;;;;7.53;4.20;;;17.30;73.90;;;;;;5035767;28;20463;-74
2022/09/04 03:52:57;;;;;;;7.70;4.13;;;17.30;73.90;;;;;;5038086;28;21256;-74
2022/09/04 03:55:46;;;;;;;6.80;4.30;;;17.30;73.90;;;;;;5032229;28;20494;-74
2022/09/04 03:58:23;;;;;;;7.40;3.63;;;17.30;73.90;;;;;;5040150;28;20465;-74
2022/09/04 04:00:59;;;;;;;8.80;4.40;;;17.30;73.90;;;;;;5019488;28;20495;-74
2022/09/04 04:03:42;;;;;;;8.07;3.90;;;17.30;73.90;;;;;;5036026;28;20475;-74
2022/09/04 04:06:23;;;;;;;7.47;4.30;;;17.30;73.80;;;;;;5039452;28;20446;-74
2022/09/04 04:09:23;;;;;;;6.63;4.10;;;17.20;73.80;;;;;;5035021;28;20478;-74
2022/09/04 04:12:09;;;;;;;6.53;3.77;;;17.20;73.70;;;;;;5036409;28;20452;-74
2022/09/04 04:14:50;;;;;;;5.57;3.47;;;17.20;73.70;;;;;;5033311;28;20448;-74
2022/09/04 04:17:34;;;;;;;6.83;4.17;;;17.20;73.70;;;;;;5034159;28;20469;-74
2022/09/04 04:20:13;;;;;;;7.07;3.93;;;17.10;73.80;;;;;;5040617;28;20478;-74
2022/09/04 04:23:04;;;;;;;8.60;4.20;;;17.10;73.80;;;;;;5035692;28;20458;-74
2022/09/04 04:26:04;;;;;;;8.70;4.10;;;17.10;73.80;;;;;;5037736;28;20451;-74
2022/09/04 04:28:59;;;;;;;6.60;3.93;;;17.10;73.90;;;;;;5031392;28;20543;-75
2022/09/04 04:32:09;;;;;;;7.63;3.93;;;17.10;73.90;;;;;;5035065;28;20463;-73
2022/09/04 04:34:47;;;;;;;6.63;3.70;;;17.10;73.80;;;;;;5035236;28;20842;-73
2022/09/04 04:37:30;;;;;;;7.17;3.90;;;17.10;73.80;;;;;;5039079;28;20572;-73
2022/09/04 04:40:05;;;;;;;8.77;5.20;;;17.10;73.90;;;;;;5037171;28;21015;-74
2022/09/04 04:42:41;;;;;;;8.00;4.57;;;17.10;73.90;;;;;;5015423;28;20462;-74
2022/09/04 04:48:58;;;;;;;8.37;4.20;;;17.00;73.80;;;;;;4998572;28;20479;-74
2022/09/04 04:51:56;;;;;;;6.30;3.90;;;16.90;73.80;;;;;;5032681;28;20459;-74
2022/09/04 04:54:43;;;;;;;7.37;4.73;;;16.90;74.00;;;;;;5023908;28;21543;-74
2022/09/04 04:57:22;;;;;;;7.30;3.60;;;16.90;74.10;;;;;;5037333;28;20450;-74
2022/09/04 04:59:57;;;;;;;6.00;4.00;;;16.90;74.00;;;;;;5021130;28;20493;-73
2022/09/04 05:02:30;;;;;;;7.30;4.30;;;16.90;73.90;;;;;;5035341;28;21093;-74
2022/09/04 05:05:04;;;;;;;10.77;4.60;;;16.80;73.90;;;;;;5036066;28;20474;-74
2022/09/04 05:07:40;;;;;;;7.70;4.20;;;16.80;74.00;;;;;;5037620;28;21079;-74
2022/09/04 05:10:17;;;;;;;6.53;4.40;;;16.80;74.00;;;;;;5026457;28;20486;-74
2022/09/04 05:13:07;;;;;;;7.77;4.27;;;16.90;74.20;;;;;;5035080;28;20466;-74
2022/09/04 05:15:43;;;;;;;6.93;4.33;;;17.20;75.50;;;;;;5016264;28;20471;-75
2022/09/04 05:18:35;;;;;;;7.93;4.30;;;17.80;75.50;;;;;;5019166;28;20984;-74
2022/09/04 05:21:12;;;;;;;7.57;4.33;;;18.50;74.20;;;;;;5034967;28;20506;-74
2022/09/04 05:23:48;;;;;;;6.70;4.20;;;18.80;72.60;;;;;;5033218;28;20478;-73
2022/09/04 05:26:25;;;;;;;9.33;4.67;;;18.60;71.70;;;;;;5020625;28;20463;-73
2022/09/04 05:29:01;;;;;;;7.43;4.43;;;18.40;71.40;;;;;;5035222;28;20873;-73
2022/09/04 05:31:37;;;;;;;9.17;5.03;;;18.10;71.60;;;;;;5035903;28;20457;-74
2022/09/04 05:34:11;;;;;;;7.47;4.27;;;17.90;71.80;;;;;;5032400;28;20544;-74
2022/09/04 05:36:51;;;;;;;6.97;4.37;;;18.00;72.90;;;;;;5036156;28;20467;-74
2022/09/04 05:39:29;;;;;;;8.73;5.07;;;18.10;72.40;;;;;;5034498;28;20474;-74
2022/09/04 05:42:11;;;;;;;11.10;5.33;;;18.20;72.40;;;;;;5020114;28;20473;-74
2022/09/04 05:44:56;;;;;;;10.33;5.43;;;18.50;73.20;;;;;;5018313;28;20487;-74
2022/09/04 05:47:37;;;;;;;12.37;6.80;;;18.80;72.10;;;;;;5034796;28;20482;-74
2022/09/04 05:50:21;;;;;;;11.07;6.80;;;18.70;71.40;;;;;;5036555;28;20474;-74
2022/09/04 05:53:17;;;;;;;12.93;7.40;;;18.50;71.30;;;;;;5034391;28;20495;-74
2022/09/04 05:56:08;;;;;;;9.70;5.90;;;18.30;71.40;;;;;;5034614;28;20453;-74
2022/09/04 05:58:57;;;;;;;9.67;5.63;;;18.10;71.70;;;;;;5033725;28;20478;-74
2022/09/04 06:01:49;;;;;;;9.03;5.30;;;18.00;72.10;;;;;;5036195;28;20474;-74
2022/09/04 06:04:36;;;;;;;12.23;6.80;;;17.90;72.30;;;;;;5038041;28;20483;-74
2022/09/04 06:07:12;;;;;;;10.40;6.37;;;17.80;72.60;;;;;;5043328;28;20459;-75
2022/09/04 06:09:54;;;;;;;12.77;7.30;;;17.80;72.80;;;;;;5020041;28;20494;-74
2022/09/04 06:12:40;;;;;;;14.20;6.67;;;17.70;73.10;;;;;;5037616;28;21028;-75
2022/09/04 06:15:21;;;;;;;11.17;6.53;;;17.70;73.30;;;;;;5044297;28;20449;-75
2022/09/04 06:18:22;;;;;;;10.30;6.03;;;17.70;73.60;;;;;;5044032;28;20460;-75
2022/09/04 06:21:05;;;;;;;9.80;6.13;;;17.70;73.80;;;;;;5020669;28;20474;-75
2022/09/04 06:23:59;;;;;;;10.53;5.40;;;17.70;74.00;;;;;;5034407;28;20456;-74
2022/09/04 06:26:43;;;;;;;9.73;5.90;;;17.70;74.20;;;;;;5036394;28;20973;-76
2022/09/04 06:29:40;;;;;;;9.67;6.63;;;17.80;74.40;;;;;;5021881;28;20477;-76
2022/09/04 06:32:39;;;;;;;12.67;7.70;;;17.80;74.60;;;;;;5008269;28;20468;-74
2022/09/04 06:35:25;;;;;;;10.00;6.70;;;17.80;74.80;;;;;;5041806;28;20438;-74
2022/09/04 06:38:06;;;;;;;10.90;7.87;;;17.90;75.00;;;;;;5043985;28;20459;-74
2022/09/04 06:40:48;;;;;;;11.70;7.50;;;17.90;75.20;;;;;;5038005;28;20483;-74
2022/09/04 06:43:26;;;;;;;15.60;7.90;;;18.00;75.30;;;;;;5022882;28;20463;-74
2022/09/04 06:46:06;;;;;;;10.70;7.53;;;18.00;75.50;;;;;;5042809;28;20574;-75
2022/09/04 06:48:46;;;;;;;11.17;7.80;;;18.10;75.60;;;;;;5022581;28;20461;-74
2022/09/04 06:51:32;;;;;;;11.20;7.80;;;18.10;75.70;;;;;;5041634;28;20458;-75
2022/09/04 06:54:15;;;;;;;9.27;6.60;;;18.20;75.90;;;;;;5040930;28;20517;-75
2022/09/04 06:57:02;;;;;;;9.53;6.83;;;18.20;76.00;;;;;;5038759;28;20475;-74
2022/09/04 06:59:42;;;;;;;9.67;7.07;;;18.30;76.10;;;;;;5041549;28;20487;-74
2022/09/04 07:02:21;;;;;;;11.33;7.30;;;18.40;76.10;;;;;;5035848;28;20458;-74
2022/09/04 07:05:03;;;;;;;9.80;7.13;;;18.40;76.20;;;;;;5038037;28;20575;-74
2022/09/04 07:07:42;;;;;;;9.67;6.90;;;18.40;76.30;;;;;;5038746;28;20485;-74
2022/09/04 07:10:13;;;;;;;11.10;7.03;;;18.50;76.40;;;;;;5036268;28;20484;-73
2022/09/04 07:13:08;;;;;;;9.60;7.17;;;18.50;76.40;;;;;;5028255;28;20482;-74
2022/09/04 07:16:05;;;;;;;10.97;7.43;;;18.60;76.50;;;;;;5020857;28;20484;-74
2022/09/04 07:19:06;;;;;;;10.70;7.00;;;18.70;76.50;;;;;;5040343;28;20477;-74
2022/09/04 07:21:41;;;;;;;10.37;6.97;;;18.70;76.50;;;;;;5018929;28;21176;-74
2022/09/04 07:24:35;;;;;;;9.83;6.80;;;18.70;76.50;;;;;;5034924;28;20455;-74
2022/09/04 07:27:12;;;;;;;11.03;6.90;;;18.80;76.50;;;;;;5037650;28;20464;-74
2022/09/04 07:29:47;;;;;;;11.00;7.00;;;18.80;76.60;;;;;;5037575;28;21263;-73
2022/09/04 07:32:20;;;;;;;11.23;7.13;;;18.90;76.70;;;;;;5034692;28;20961;-75
2022/09/04 07:34:54;;;;;;;8.47;5.97;;;18.90;76.70;;;;;;5034435;28;21045;-74
2022/09/04 07:37:29;;;;;;;8.50;5.90;;;18.90;76.80;;;;;;5038989;28;20484;-74
2022/09/04 07:40:11;;;;;;;10.73;6.77;;;19.00;76.80;;;;;;5038018;28;20468;-74
2022/09/04 07:42:45;;;;;;;9.27;5.87;;;19.00;76.80;;;;;;5019344;28;20468;-74
2022/09/04 07:45:26;;;;;;;16.03;6.70;;;19.10;76.90;;;;;;5034712;28;21036;-74
2022/09/04 07:48:05;;;;;;;7.47;5.20;;;19.20;76.90;;;;;;5035135;28;20453;-74
2022/09/04 07:50:39;;;;;;;9.00;6.23;;;19.20;77.00;;;;;;5037750;28;20477;-74
2022/09/04 07:53:24;;;;;;;7.63;5.47;;;19.30;77.00;;;;;;5037325;28;20461;-74
2022/09/04 07:56:00;;;;;;;7.93;5.83;;;19.30;77.10;;;;;;5038773;28;20496;-74
2022/09/04 07:59:03;;;;;;;9.60;5.73;;;19.40;77.20;;;;;;5040231;28;20465;-74
2022/09/04 08:01:43;;;;;;;10.03;6.13;;;19.50;77.40;;;;;;5032803;28;20811;-75
2022/09/04 08:04:33;;;;;;;9.90;6.27;;;19.50;77.30;;;;;;5031792;28;20442;-73
2022/09/04 08:07:04;;;;;;;9.37;6.10;;;19.60;77.40;;;;;;5038150;28;21090;-74
2022/09/04 08:09:56;;;;;;;9.70;5.23;;;19.60;77.50;;;;;;5035682;28;20623;-74
2022/09/04 08:12:55;;;;;;;9.07;5.33;;;19.60;77.50;;;;;;5033821;28;20464;-74
2022/09/04 08:15:32;;;;;;;8.73;5.50;;;19.70;77.60;;;;;;5039621;28;20535;-73
2022/09/04 08:18:27;;;;;;;10.00;5.77;;;19.80;77.50;;;;;;5034262;28;20457;-73
2022/09/04 08:21:08;;;;;;;6.90;4.87;;;19.80;77.60;;;;;;5038406;28;20509;-73
2022/09/04 08:24:01;;;;;;;10.00;4.27;;;19.90;77.60;;;;;;5035261;28;20462;-73
2022/09/04 08:26:39;;;;;;;11.37;4.90;;;20.00;77.70;;;;;;5036330;28;20498;-75
2022/09/04 08:29:26;;;;;;;9.63;5.27;;;20.00;77.70;;;;;;5034777;28;20553;-75
2022/09/04 08:32:09;;;;;;;10.67;5.80;;;20.10;77.70;;;;;;5034252;28;20459;-75
2022/09/04 08:35:01;;;;;;;7.23;4.77;;;20.20;77.80;;;;;;5019466;28;20456;-74
2022/09/04 08:37:38;;;;;;;8.70;4.90;;;20.20;77.70;;;;;;5036253;28;20471;-74
2022/09/04 08:40:45;;;;;;;9.03;4.20;;;20.20;77.70;;;;;;5032839;28;20486;-74
2022/09/04 08:43:48;;;;;;;6.83;4.37;;;20.30;77.70;;;;;;5032975;28;20479;-74
2022/09/04 08:46:47;;;;;;;8.53;4.63;;;20.30;77.80;;;;;;5032009;28;20481;-74
2022/09/04 08:49:52;;;;;;;7.13;3.90;;;20.40;77.70;;;;;;5037518;28;20505;-74
2022/09/04 08:52:41;;;;;;;6.80;4.30;;;20.40;77.60;;;;;;5019373;28;20966;-74
2022/09/04 08:55:39;;;;;;;7.77;3.60;;;20.50;77.60;;;;;;5021481;28;20459;-74
2022/09/04 08:58:31;;;;;;;7.23;4.40;;;20.50;77.80;;;;;;5021119;28;20453;-72
2022/09/04 09:01:37;;;;;;;6.37;3.90;;;20.60;77.60;;;;;;5035432;28;21085;-72
2022/09/04 09:04:58;;;;;;;6.40;4.10;;;20.60;77.70;;;;;;5012375;28;20465;-73
2022/09/04 09:08:03;;;;;;;5.63;3.60;;;20.70;77.80;;;;;;5034333;28;20502;-72
2022/09/04 09:10:50;;;;;;;7.00;4.13;;;20.70;77.70;;;;;;5020160;28;20488;-72
2022/09/04 09:13:59;;;;;;;6.27;3.40;;;20.80;77.80;;;;;;5037544;28;20489;-72
2022/09/04 09:16:41;;;;;;;6.57;3.67;;;20.90;77.90;;;;;;5029814;28;21400;-72
2022/09/04 09:19:21;;;;;;;9.20;3.87;;;21.00;77.90;;;;;;5035996;28;20535;-73
2022/09/04 09:22:09;;;;;;;5.37;3.53;;;21.10;77.80;;;;;;5034990;28;20472;-73
2022/09/04 09:25:19;;;;;;;8.07;3.30;;;21.20;77.60;;;;;;5030774;28;20872;-72
2022/09/04 09:28:26;;;;;;;6.20;3.77;;;21.30;77.40;;;;;;5032900;28;20448;-72
2022/09/04 09:31:29;;;;;;;11.20;3.40;;;21.30;77.30;;;;;;5016846;28;20479;-73
2022/09/04 09:34:36;;;;;;;6.50;4.03;;;21.30;77.20;;;;;;5025458;28;20494;-72
2022/09/04 09:37:34;;;;;;;6.53;3.10;;;21.40;77.10;;;;;;5038673;28;20462;-73
2022/09/04 09:40:35;;;;;;;6.53;3.20;;;21.40;77.00;;;;;;5039102;28;20950;-72
2022/09/04 09:43:27;;;;;;;6.73;3.23;;;21.50;76.90;;;;;;5036119;28;20467;-73
2022/09/04 09:46:33;;;;;;;6.20;3.10;;;21.50;76.80;;;;;;5039082;28;20481;-73
2022/09/04 09:49:37;;;;;;;6.30;3.50;;;21.60;76.70;;;;;;4988971;28;20489;-72
2022/09/04 09:52:59;;;;;;;6.63;3.03;;;21.60;76.50;;;;;;5037512;28;20531;-72
2022/09/04 09:56:07;;;;;;;5.67;3.10;;;21.70;76.30;;;;;;4954218;28;21312;-72
2022/09/04 09:58:55;;;;;;;7.07;3.10;;;21.80;76.20;;;;;;5016309;28;20464;-73
2022/09/04 10:01:48;;;;;;;6.57;2.90;;;21.80;76.00;;;;;;5036909;28;20468;-72
2022/09/04 10:04:43;;;;;;;5.40;2.50;;;21.80;75.80;;;;;;5034070;28;20466;-72
2022/09/04 10:07:48;;;;;;;5.30;2.70;;;21.90;75.60;;;;;;5024192;28;20479;-72
2022/09/04 10:11:00;;;;;;;5.50;2.60;;;21.90;75.40;;;;;;5032067;28;20478;-72
2022/09/04 10:13:56;;;;;;;5.20;3.00;;;21.90;75.30;;;;;;5034339;28;20451;-72
2022/09/04 10:16:48;;;;;;;5.80;2.93;;;21.90;75.10;;;;;;5034174;28;20461;-72
2022/09/04 10:19:48;;;;;;;5.60;2.73;;;21.90;75.10;;;;;;5035263;28;20475;-73
2022/09/04 10:22:41;;;;;;;6.90;2.90;;;22.00;74.90;;;;;;5032479;28;20468;-73
2022/09/04 10:25:54;;;;;;;5.17;2.83;;;22.10;74.90;;;;;;5035961;28;20452;-72
2022/09/04 10:28:58;;;;;;;5.17;2.80;;;22.10;74.90;;;;;;5035258;28;20962;-72
2022/09/04 10:32:01;;;;;;;4.80;2.43;;;22.20;74.70;;;;;;5007680;28;20550;-72
2022/09/04 10:35:14;;;;;;;6.10;2.97;;;22.20;74.60;;;;;;5019373;28;20469;-72
2022/09/04 10:38:09;;;;;;;5.07;2.30;;;22.30;74.20;;;;;;5001164;28;20470;-72
2022/09/04 10:40:46;;;;;;;5.83;2.30;;;22.40;74.00;;;;;;5024858;28;21013;-73
2022/09/04 10:43:46;;;;;;;8.43;2.30;;;22.50;73.90;;;;;;5042000;28;20469;-72
2022/09/04 10:46:20;;;;;;;5.60;2.37;;;22.60;73.60;;;;;;5010546;28;20470;-73
2022/09/04 10:49:15;;;;;;;5.23;2.90;;;22.60;73.40;;;;;;5034997;28;20467;-72
2022/09/04 10:52:08;;;;;;;4.40;2.23;;;22.70;73.30;;;;;;5038111;28;20460;-72
2022/09/04 10:55:01;;;;;;;6.90;2.27;;;22.70;73.10;;;;;;5038876;28;20461;-72
2022/09/04 10:57:47;;;;;;;4.53;1.90;;;22.80;72.70;;;;;;5038823;28;21447;-72
2022/09/04 11:00:18;;;;;;;5.50;2.13;;;22.90;72.40;;;;;;5036403;28;20575;-73
2022/09/04 11:03:29;;;;;;;4.30;2.00;;;23.00;72.10;;;;;;5018875;28;20455;-73
2022/09/04 11:06:35;;;;;;;5.07;2.07;;;23.00;71.50;;;;;;5042673;28;20447;-72
2022/09/04 11:09:22;;;;;;;6.73;2.60;;;23.10;71.20;;;;;;5036537;28;21204;-72
2022/09/04 11:12:11;;;;;;;5.50;2.27;;;23.20;71.60;;;;;;5037960;28;20466;-71
2022/09/04 11:15:17;;;;;;;5.60;2.90;;;23.50;71.50;;;;;;5037443;28;20466;-71
2022/09/04 11:18:18;;;;;;;5.33;2.30;;;23.90;70.90;;;;;;5002451;28;20951;-71
2022/09/04 11:21:26;;;;;;;7.00;2.73;;;24.20;70.60;;;;;;5036671;28;20486;-71
2022/09/04 11:24:46;;;;;;;6.10;2.20;;;24.50;70.10;;;;;;5041056;28;20465;-71
2022/09/04 11:28:06;;;;;;;4.90;2.33;;;24.80;69.90;;;;;;5040654;28;20501;-71
2022/09/04 11:30:52;;;;;;;4.37;1.90;;;24.90;69.20;;;;;;5041334;28;20481;-71
2022/09/04 11:34:00;;;;;;;4.93;2.20;;;25.00;68.90;;;;;;5044431;28;20451;-71
2022/09/04 11:37:10;;;;;;;6.20;2.40;;;25.10;68.90;;;;;;5039394;28;20466;-71
2022/09/04 11:40:05;;;;;;;5.33;2.20;;;25.20;68.40;;;;;;5040563;28;20474;-71
2022/09/04 11:42:40;;;;;;;5.27;2.17;;;25.40;68.20;;;;;;5037728;28;20455;-71
2022/09/04 11:45:42;;;;;;;4.70;2.10;;;25.50;68.00;;;;;;5041185;28;20462;-71
2022/09/04 11:48:40;;;;;;;5.20;2.47;;;25.60;67.70;;;;;;5038848;28;20471;-71
2022/09/04 11:51:39;;;;;;;4.60;2.13;;;25.60;67.30;;;;;;5023028;28;20502;-71
2022/09/04 11:54:44;;;;;;;4.40;1.93;;;25.70;67.00;;;;;;5029048;28;20517;-71
2022/09/04 11:57:22;;;;;;;4.07;1.50;;;25.80;66.70;;;;;;5005394;28;20451;-71
2022/09/04 12:00:15;;;;;;;5.80;1.80;;;25.80;66.40;;;;;;5039213;28;20489;-71
2022/09/04 12:03:26;;;;;;;5.00;2.27;;;25.90;66.20;;;;;;5035753;28;20460;-71
2022/09/04 12:06:13;;;;;;;5.40;1.90;;;26.00;65.80;;;;;;5038450;28;20548;-71
2022/09/04 12:09:10;;;;;;;4.73;1.53;;;26.10;65.60;;;;;;5039972;28;20486;-71
2022/09/04 12:12:15;;;;;;;5.13;2.00;;;26.10;65.30;;;;;;5016025;28;20457;-71
2022/09/04 12:15:15;;;;;;;4.00;1.70;;;26.10;64.90;;;;;;5031410;28;20460;-71
2022/09/04 12:18:22;;;;;;;4.97;1.90;;;26.10;64.50;;;;;;5011935;28;20448;-71
2022/09/04 12:21:13;;;;;;;4.93;1.70;;;26.20;64.30;;;;;;5031233;28;20487;-71
2022/09/04 12:24:08;;;;;;;4.20;1.80;;;26.10;63.90;;;;;;5025067;28;20563;-71
2022/09/04 12:27:04;;;;;;;6.10;1.80;;;26.10;63.80;;;;;;5005532;28;20475;-71
2022/09/04 12:30:08;;;;;;;4.50;2.07;;;26.10;63.60;;;;;;5038038;28;20486;-71
2022/09/04 12:33:19;;;;;;;5.07;1.90;;;26.10;63.50;;;;;;5017290;28;20468;-71
2022/09/04 12:36:17;;;;;;;5.57;2.00;;;26.10;63.60;;;;;;5036700;28;20475;-71
2022/09/04 12:39:14;;;;;;;4.67;2.10;;;26.10;63.60;;;;;;5015436;28;20478;-71
2022/09/04 12:41:54;;;;;;;4.53;1.80;;;26.20;63.20;;;;;;5040232;28;20457;-71
2022/09/04 12:44:35;;;;;;;5.87;2.23;;;26.20;63.50;;;;;;5036335;28;20474;-71
2022/09/04 12:47:17;;;;;;;4.20;1.80;;;26.20;63.30;;;;;;5037802;28;20476;-71
2022/09/04 12:50:08;;;;;;;6.10;2.00;;;26.20;63.30;;;;;;5039211;28;21476;-71
2022/09/04 12:52:51;;;;;;;4.20;1.90;;;26.20;63.40;;;;;;5039712;28;20723;-71
2022/09/04 12:55:28;;;;;;;4.70;1.90;;;26.20;63.30;;;;;;5036502;28;20463;-71
2022/09/04 12:58:12;;;;;;;5.03;2.13;;;26.20;63.00;;;;;;5038506;28;20457;-71
2022/09/04 13:00:49;;;;;;;4.10;1.70;;;26.20;63.10;;;;;;5035934;28;21056;-71
2022/09/04 13:03:24;;;;;;;6.77;1.50;;;26.20;63.20;;;;;;5037558;28;20544;-71
2022/09/04 13:06:09;;;;;;;6.47;1.93;;;26.20;63.10;;;;;;5020283;28;20475;-71
2022/09/04 13:08:49;;;;;;;5.30;1.80;;;26.20;63.10;;;;;;5035154;28;20515;-71
2022/09/04 13:11:33;;;;;;;4.33;1.57;;;26.20;63.00;;;;;;5037083;28;21036;-71
2022/09/04 13:14:19;;;;;;;7.37;1.83;;;26.10;62.90;;;;;;5021121;28;21220;-71
2022/09/04 13:16:55;;;;;;;4.00;1.70;;;26.10;62.80;;;;;;5032344;28;20465;-71
2022/09/04 13:19:28;;;;;;;4.67;1.43;;;26.00;62.70;;;;;;5036634;28;20478;-71
2022/09/04 13:22:10;;;;;;;4.03;1.47;;;26.00;62.70;;;;;;5036880;28;20475;-71
2022/09/04 13:24:51;;;;;;;4.83;1.67;;;26.00;62.50;;;;;;5038838;28;20490;-71
2022/09/04 13:27:32;;;;;;;5.17;1.73;;;26.00;62.30;;;;;;5032847;28;20538;-71
2022/09/04 13:30:06;;;;;;;4.73;1.47;;;26.00;62.20;;;;;;5035684;28;20521;-71
2022/09/04 13:33:07;;;;;;;3.90;1.50;;;25.90;62.10;;;;;;5033069;28;20471;-71
2022/09/04 13:35:54;;;;;;;5.00;1.80;;;25.90;62.10;;;;;;5038281;28;20475;-71
2022/09/04 13:39:04;;;;;;;3.73;1.27;;;25.90;61.90;;;;;;5036604;28;20460;-71
2022/09/04 13:42:06;;;;;;;4.43;1.40;;;25.80;61.80;;;;;;5019711;28;20504;-71
2022/09/04 13:45:04;;;;;;;6.00;1.70;;;25.80;61.80;;;;;;5035684;28;21025;-71
2022/09/04 13:47:39;;;;;;;5.50;1.73;;;25.80;61.70;;;;;;5036246;28;20502;-71
2022/09/04 13:50:16;;;;;;;4.40;1.50;;;25.80;61.70;;;;;;5035827;28;20525;-71
2022/09/04 13:52:50;;;;;;;4.43;1.70;;;25.80;61.60;;;;;;5038399;28;20459;-71
2022/09/04 13:55:23;;;;;;;5.73;1.40;;;25.80;61.60;;;;;;5035907;28;20466;-71
2022/09/04 13:57:58;;;;;;;4.33;1.77;;;25.80;61.60;;;;;;5036732;28;20467;-71
2022/09/04 14:00:29;;;;;;;4.10;1.70;;;25.80;61.50;;;;;;5037198;28;20508;-71
2022/09/04 14:03:03;;;;;;;4.70;1.10;;;25.80;61.30;;;;;;5036274;28;20460;-71
2022/09/04 14:05:36;;;;;;;4.97;1.60;;;25.80;61.00;;;;;;5038928;28;20546;-71
2022/09/04 14:08:07;;;;;;;7.50;1.70;;;25.70;60.90;;;;;;5036673;28;20472;-71
2022/09/04 14:11:02;;;;;;;4.20;1.63;;;25.70;60.90;;;;;;5037512;28;20483;-71
2022/09/04 14:13:41;;;;;;;3.93;1.10;;;25.70;60.90;;;;;;5037502;28;20598;-71
2022/09/04 14:16:13;;;;;;;5.97;1.80;;;25.70;60.90;;;;;;5039152;28;20576;-71
2022/09/04 14:19:02;;;;;;;4.77;1.40;;;25.70;60.90;;;;;;5038482;28;21002;-71
2022/09/04 14:22:01;;;;;;;5.03;1.60;;;25.70;61.00;;;;;;5037251;28;20470;-71
2022/09/04 14:24:35;;;;;;;6.73;1.70;;;25.70;61.00;;;;;;5037181;28;20466;-71
2022/09/04 14:27:13;;;;;;;5.20;1.60;;;25.70;61.00;;;;;;5037520;28;20967;-71